createdAt,value
2018-07-24T00:00:36.383Z,25.09
2018-07-24T00:03:05.417Z,25.04
2018-07-24T00:05:34.585Z,25.01
2018-07-24T00:08:03.652Z,24.97
2018-07-24T00:10:33.078Z,24.95
2018-07-24T00:13:02.091Z,24.92
2018-07-24T00:15:31.120Z,24.89
2018-07-24T00:18:00.140Z,24.88
2018-07-24T00:20:29.397Z,24.86
2018-07-24T00:22:58.398Z,24.85
2018-07-24T00:25:27.464Z,24.83
2018-07-24T00:27:56.485Z,24.82
2018-07-24T00:30:25.512Z,24.80
2018-07-24T00:32:54.545Z,24.79
2018-07-24T00:35:23.577Z,24.76
2018-07-24T00:37:52.679Z,24.72
2018-07-24T00:40:21.761Z,24.67
2018-07-24T00:42:50.867Z,24.64
2018-07-24T00:45:19.907Z,24.59
2018-07-24T00:47:48.932Z,24.56
2018-07-24T00:50:17.942Z,24.53
2018-07-24T00:52:46.939Z,24.52
2018-07-24T00:55:16.034Z,24.51
2018-07-24T00:57:45.927Z,24.51
2018-07-24T01:00:16.347Z,24.50
2018-07-24T01:02:46.367Z,24.48
2018-07-24T01:05:15.543Z,24.46
2018-07-24T01:07:44.611Z,24.44
2018-07-24T01:10:13.928Z,24.40
2018-07-24T01:12:43.088Z,24.38
2018-07-24T01:15:12.225Z,24.35
2018-07-24T01:17:41.288Z,24.32
2018-07-24T01:20:10.691Z,24.28
2018-07-24T01:22:40.030Z,24.27
2018-07-24T01:25:09.220Z,24.25
2018-07-24T01:27:38.283Z,24.23
2018-07-24T01:30:07.502Z,24.22
2018-07-24T01:32:36.615Z,24.20
2018-07-24T01:35:05.895Z,24.16
2018-07-24T01:37:35.050Z,24.11
2018-07-24T01:40:04.212Z,24.07
2018-07-24T01:42:35.074Z,24.03
2018-07-24T01:45:04.636Z,24.00
2018-07-24T01:47:33.719Z,23.98
2018-07-24T01:50:02.830Z,23.96
2018-07-24T01:52:31.920Z,23.94
2018-07-24T01:55:01.036Z,23.90
2018-07-24T01:57:30.120Z,23.86
2018-07-24T01:59:59.273Z,23.84
2018-07-24T02:02:28.421Z,23.82
2018-07-24T02:04:57.621Z,23.80
2018-07-24T02:07:27.439Z,23.75
2018-07-24T02:09:56.938Z,23.72
2018-07-24T02:12:26.416Z,23.69
2018-07-24T02:14:55.516Z,23.68
2018-07-24T02:17:24.630Z,23.66
2018-07-24T02:19:53.740Z,23.63
2018-07-24T02:22:27.012Z,23.62
2018-07-24T02:24:56.059Z,23.63
2018-07-24T02:27:25.260Z,23.61
2018-07-24T02:29:56.424Z,23.60
2018-07-24T02:32:25.860Z,23.58
2018-07-24T02:34:55.944Z,23.57
2018-07-24T02:37:25.795Z,23.55
2018-07-24T02:39:55.843Z,23.54
2018-07-24T02:42:26.113Z,23.52
2018-07-24T02:44:56.802Z,23.51
2018-07-24T02:47:26.888Z,23.49
2018-07-24T02:49:59.888Z,23.46
2018-07-24T02:52:29.709Z,23.45
2018-07-24T02:55:00.882Z,23.44
2018-07-24T02:57:30.267Z,23.42
2018-07-24T02:59:59.618Z,23.39
2018-07-24T03:02:30.732Z,23.37
2018-07-24T03:05:00.480Z,23.34
2018-07-24T03:07:29.854Z,23.29
2018-07-24T03:09:59.407Z,23.26
2018-07-24T03:12:33.454Z,23.21
2018-07-24T03:15:04.695Z,23.20
2018-07-24T03:17:40.875Z,23.15
2018-07-24T03:20:16.749Z,23.11
2018-07-24T03:22:45.511Z,23.11
2018-07-24T03:25:14.831Z,23.09
2018-07-24T03:27:44.496Z,23.09
2018-07-24T03:30:15.354Z,23.10
2018-07-24T03:32:45.193Z,23.11
2018-07-24T03:35:14.762Z,23.11
2018-07-24T03:37:44.184Z,23.12
2018-07-24T03:40:13.271Z,23.11
2018-07-24T03:42:42.607Z,23.11
2018-07-24T03:45:11.679Z,23.12
2018-07-24T03:47:41.750Z,23.10
2018-07-24T03:50:11.360Z,23.07
2018-07-24T03:52:41.050Z,23.05
2018-07-24T03:55:11.075Z,23.05
2018-07-24T03:57:40.926Z,23.03
2018-07-24T04:00:10.861Z,23.02
2018-07-24T04:02:40.310Z,23.03
2018-07-24T04:05:11.739Z,23.03
2018-07-24T04:07:40.853Z,23.08
2018-07-24T04:10:10.179Z,23.12
2018-07-24T04:12:39.521Z,23.18
2018-07-24T04:15:08.585Z,23.24
2018-07-24T04:17:38.828Z,23.32
2018-07-24T04:20:08.748Z,23.42
2018-07-24T04:22:38.528Z,23.53
2018-07-24T04:25:09.386Z,23.64
2018-07-24T04:27:39.240Z,23.80
2018-07-24T04:30:09.076Z,24.00
2018-07-24T04:32:41.202Z,24.24
2018-07-24T04:35:11.468Z,24.48
2018-07-24T04:37:40.982Z,24.71
2018-07-24T04:40:10.149Z,24.92
2018-07-24T04:42:39.364Z,25.13
2018-07-24T04:45:08.447Z,25.35
2018-07-24T04:47:37.620Z,25.57
2018-07-24T04:50:07.760Z,25.78
2018-07-24T04:52:36.855Z,25.98
2018-07-24T04:55:07.570Z,26.17
2018-07-24T04:57:36.808Z,26.35
2018-07-24T05:00:10.226Z,26.55
2018-07-24T05:02:41.862Z,26.82
2018-07-24T05:05:14.087Z,27.05
2018-07-24T05:07:43.822Z,27.31
2018-07-24T05:10:18.517Z,27.54
2018-07-24T05:12:49.101Z,27.79
2018-07-24T05:15:18.276Z,28.09
2018-07-24T05:17:47.708Z,28.35
2018-07-24T05:20:17.037Z,28.56
2018-07-24T05:22:46.320Z,28.75
2018-07-24T05:25:21.034Z,28.99
2018-07-24T05:27:51.438Z,29.27
2018-07-24T05:30:21.054Z,29.56
2018-07-24T05:32:51.528Z,29.84
2018-07-24T05:37:56.745Z,30.26
2018-07-24T05:40:25.908Z,30.48
2018-07-24T05:42:55.414Z,30.66
2018-07-24T05:45:30.637Z,30.87
2018-07-24T05:48:00.658Z,31.13
2018-07-24T05:50:32.333Z,31.43
2018-07-24T05:53:01.568Z,31.78
2018-07-24T05:55:30.432Z,32.16
2018-07-24T05:58:00.141Z,32.57
2018-07-24T06:00:29.558Z,32.97
2018-07-24T06:03:00.623Z,33.36
2018-07-24T06:05:32.641Z,33.72
2018-07-24T06:08:02.250Z,34.11
2018-07-24T06:10:31.473Z,34.55
2018-07-24T06:13:01.401Z,35.07
2018-07-24T06:15:30.579Z,35.62
2018-07-24T06:17:59.848Z,36.16
2018-07-24T06:20:28.874Z,36.62
2018-07-24T06:22:58.146Z,37.06
2018-07-24T06:25:27.505Z,37.49
2018-07-24T06:27:57.451Z,37.93
2018-07-24T06:30:26.956Z,38.35
2018-07-24T06:32:56.146Z,38.80
2018-07-24T06:35:25.349Z,39.21
2018-07-24T06:37:58.332Z,39.55
2018-07-24T06:40:29.932Z,39.77
2018-07-24T06:43:02.863Z,39.96
2018-07-24T06:45:32.053Z,40.05
2018-07-24T06:48:01.175Z,40.21
2018-07-24T06:50:30.580Z,40.42
2018-07-24T06:53:15.174Z,40.53
2018-07-24T06:55:48.560Z,40.51
2018-07-24T06:58:20.169Z,40.47
2018-07-24T07:00:52.022Z,40.48
2018-07-24T07:03:21.869Z,40.50
2018-07-24T07:05:51.624Z,40.51
2018-07-24T07:08:25.514Z,40.51
2018-07-24T07:11:02.999Z,40.56
2018-07-24T07:13:37.650Z,40.62
2018-07-24T07:16:07.006Z,40.72
2018-07-24T07:18:42.516Z,40.83
2018-07-24T07:21:16.133Z,40.99
2018-07-24T07:23:48.806Z,41.14
2018-07-24T07:26:20.891Z,41.29
2018-07-24T07:28:50.068Z,41.41
2018-07-24T07:31:19.412Z,41.53
2018-07-24T07:33:49.430Z,41.59
2018-07-24T07:36:19.068Z,41.54
2018-07-24T07:38:50.590Z,41.45
2018-07-24T07:41:20.552Z,41.46
2018-07-24T07:43:50.848Z,41.50
2018-07-24T07:46:27.528Z,41.58
2018-07-24T07:48:57.122Z,41.57
2018-07-24T07:51:30.598Z,41.61
2018-07-24T07:54:00.199Z,41.65
2018-07-24T07:56:33.042Z,41.62
2018-07-24T07:59:08.051Z,41.51
2018-07-24T08:01:38.227Z,41.42
2018-07-24T08:04:11.622Z,41.29
2018-07-24T08:06:40.665Z,41.16
2018-07-24T08:09:10.741Z,40.95
2018-07-24T08:11:40.043Z,40.74
2018-07-24T08:14:10.744Z,40.50
2018-07-24T08:16:40.531Z,40.29
2018-07-24T08:19:09.913Z,40.18
2018-07-24T08:21:39.396Z,40.09
2018-07-24T08:24:08.830Z,40.09
2018-07-24T08:26:40.130Z,40.08
2018-07-24T08:29:09.459Z,40.11
2018-07-24T08:31:39.106Z,40.16
2018-07-24T08:34:12.816Z,40.19
2018-07-24T08:36:49.677Z,40.22
2018-07-24T08:39:21.117Z,40.28
2018-07-24T08:41:51.877Z,40.30
2018-07-24T08:44:27.743Z,40.34
2018-07-24T08:46:57.961Z,40.48
2018-07-24T08:49:27.153Z,40.58
2018-07-24T08:51:56.348Z,40.60
2018-07-24T08:54:25.636Z,40.65
2018-07-24T08:57:04.883Z,40.59
2018-07-24T08:59:40.882Z,40.55
2018-07-24T09:02:14.093Z,40.52
2018-07-24T09:04:45.371Z,40.53
2018-07-24T09:07:15.560Z,40.65
2018-07-24T09:09:44.848Z,40.81
2018-07-24T09:12:14.515Z,40.92
2018-07-24T09:14:43.760Z,41.00
2018-07-24T09:17:12.962Z,40.94
2018-07-24T09:19:42.498Z,40.98
2018-07-24T09:22:11.999Z,41.05
2018-07-24T09:24:41.681Z,41.21
2018-07-24T09:27:12.018Z,41.24
2018-07-24T09:29:43.624Z,41.10
2018-07-24T09:32:13.197Z,41.03
2018-07-24T09:34:44.885Z,41.03
2018-07-24T09:37:18.508Z,41.05
2018-07-24T09:39:48.224Z,40.96
2018-07-24T09:42:18.306Z,40.90
2018-07-24T09:44:52.852Z,40.96
2018-07-24T09:47:22.203Z,41.13
2018-07-24T09:49:51.228Z,41.26
2018-07-24T09:52:20.443Z,41.16
2018-07-24T09:54:49.619Z,40.98
2018-07-24T09:57:18.819Z,40.80
2018-07-24T09:59:47.921Z,40.67
2018-07-24T10:02:17.792Z,40.55
2018-07-24T10:04:47.336Z,40.52
2018-07-24T10:07:16.523Z,40.66
2018-07-24T10:09:45.711Z,40.95
2018-07-24T10:12:16.528Z,41.19
2018-07-24T10:14:45.659Z,41.33
2018-07-24T10:17:15.009Z,41.36
2018-07-24T10:19:45.427Z,41.33
2018-07-24T10:22:14.755Z,41.23
2018-07-24T10:24:44.773Z,41.14
2018-07-24T10:27:17.053Z,40.93
2018-07-24T10:29:46.406Z,40.48
2018-07-24T10:32:15.985Z,40.10
2018-07-24T10:34:46.416Z,39.83
2018-07-24T10:37:15.935Z,39.54
2018-07-24T10:39:45.700Z,39.33
2018-07-24T10:42:16.085Z,39.18
2018-07-24T10:44:49.359Z,38.96
2018-07-24T10:47:19.243Z,38.88
2018-07-24T10:49:48.453Z,38.91
2018-07-24T10:52:17.957Z,38.85
2018-07-24T10:54:47.360Z,38.77
2018-07-24T10:57:16.884Z,38.52
2018-07-24T10:59:48.258Z,38.32
2018-07-24T11:02:17.844Z,38.26
2018-07-24T11:04:50.375Z,38.34
2018-07-24T11:07:19.945Z,38.48
2018-07-24T11:09:50.981Z,38.61
2018-07-24T11:12:20.520Z,38.74
2018-07-24T11:14:55.037Z,38.80
2018-07-24T11:17:25.987Z,38.90
2018-07-24T11:19:58.202Z,39.17
2018-07-24T11:22:27.940Z,39.37
2018-07-24T11:24:59.776Z,39.44
2018-07-24T11:27:32.720Z,39.26
2018-07-24T11:30:05.327Z,39.05
2018-07-24T11:32:35.620Z,38.97
2018-07-24T11:35:11.347Z,38.98
2018-07-24T11:37:40.905Z,38.87
2018-07-24T11:40:10.807Z,38.70
2018-07-24T11:42:40.761Z,38.57
2018-07-24T11:45:10.844Z,38.53
2018-07-24T11:47:40.428Z,38.56
2018-07-24T11:50:10.561Z,38.65
2018-07-24T11:52:40.896Z,38.71
2018-07-24T11:55:22.861Z,38.85
2018-07-24T11:57:51.970Z,39.06
2018-07-24T12:00:25.253Z,39.34
2018-07-24T12:02:58.656Z,39.48
2018-07-24T12:05:30.704Z,39.59
2018-07-24T12:08:03.498Z,39.78
2018-07-24T12:10:32.845Z,39.98
2018-07-24T12:13:03.834Z,40.03
2018-07-24T12:15:35.275Z,40.10
2018-07-24T12:18:05.935Z,40.24
2018-07-24T12:20:37.572Z,40.33
2018-07-24T12:23:07.762Z,40.37
2018-07-24T12:25:43.975Z,40.42
2018-07-24T12:28:13.566Z,40.53
2018-07-24T12:30:42.960Z,40.73
2018-07-24T12:33:12.329Z,40.95
2018-07-24T12:35:41.768Z,41.16
2018-07-24T12:38:14.218Z,41.35
2018-07-24T12:40:44.223Z,41.50
2018-07-24T12:43:15.623Z,41.58
2018-07-24T12:45:46.664Z,41.53
2018-07-24T12:48:20.930Z,41.31
2018-07-24T12:50:53.351Z,40.95
2018-07-24T12:53:23.000Z,40.67
2018-07-24T12:55:52.750Z,40.47
2018-07-24T12:58:22.659Z,40.23
2018-07-24T13:00:52.139Z,39.97
2018-07-24T13:03:21.509Z,39.72
2018-07-24T13:05:50.835Z,39.64
2018-07-24T13:08:19.915Z,39.55
2018-07-24T13:10:49.573Z,39.55
2018-07-24T13:13:18.981Z,39.68
2018-07-24T13:15:48.272Z,39.89
2018-07-24T13:18:17.675Z,40.12
2018-07-24T13:20:46.884Z,40.27
2018-07-24T13:23:23.455Z,40.36
2018-07-24T13:25:55.557Z,40.34
2018-07-24T13:28:24.705Z,40.31
2018-07-24T13:30:54.115Z,40.24
2018-07-24T13:33:23.526Z,40.07
2018-07-24T13:35:52.969Z,39.73
2018-07-24T13:38:22.879Z,39.34
2018-07-24T13:40:52.357Z,38.99
2018-07-24T13:46:00.177Z,38.46
2018-07-24T13:48:33.003Z,38.20
2018-07-24T13:51:04.602Z,37.98
2018-07-24T13:53:34.258Z,37.88
2018-07-24T13:56:08.183Z,37.83
2018-07-24T13:58:39.803Z,37.91
2018-07-24T14:01:11.208Z,38.02
2018-07-24T14:03:42.038Z,38.14
2018-07-24T14:06:11.558Z,38.26
2018-07-24T14:08:40.808Z,38.26
2018-07-24T14:11:11.223Z,38.21
2018-07-24T14:13:40.546Z,38.23
2018-07-24T14:16:10.738Z,38.23
2018-07-24T14:18:43.091Z,38.15
2018-07-24T14:21:26.460Z,38.03
2018-07-24T14:23:58.754Z,37.97
2018-07-24T14:26:27.751Z,38.03
2018-07-24T14:28:56.955Z,38.17
2018-07-24T14:31:26.185Z,38.34
2018-07-24T14:33:56.483Z,38.55
2018-07-24T14:36:29.349Z,38.75
2018-07-24T14:39:07.963Z,38.94
2018-07-24T14:41:37.418Z,39.04
2018-07-24T14:44:11.891Z,39.09
2018-07-24T14:46:43.401Z,38.97
2018-07-24T14:49:13.055Z,38.77
2018-07-24T14:51:46.092Z,38.51
2018-07-24T14:54:20.205Z,38.34
2018-07-24T14:56:50.305Z,38.25
2018-07-24T14:59:23.213Z,38.21
2018-07-24T15:01:54.438Z,38.15
2018-07-24T15:04:25.901Z,38.07
2018-07-24T15:06:57.048Z,37.97
2018-07-24T15:09:28.637Z,37.84
2018-07-24T15:12:00.935Z,37.69
2018-07-24T15:14:31.301Z,37.53
2018-07-24T15:17:01.131Z,37.34
2018-07-24T15:19:33.799Z,37.19
2018-07-24T15:22:05.904Z,37.10
2018-07-24T15:24:35.221Z,37.00
2018-07-24T15:27:04.688Z,36.92
2018-07-24T15:29:34.049Z,36.86
2018-07-24T15:32:03.456Z,36.79
2018-07-24T15:34:32.995Z,36.74
2018-07-24T15:37:02.210Z,36.69
2018-07-24T15:39:31.458Z,36.69
2018-07-24T15:42:00.662Z,36.70
2018-07-24T15:44:35.144Z,36.75
2018-07-24T15:47:04.377Z,36.77
2018-07-24T15:49:33.683Z,36.81
2018-07-24T15:52:10.045Z,36.83
2018-07-24T15:54:42.092Z,36.84
2018-07-24T15:57:15.261Z,36.87
2018-07-24T15:59:49.416Z,36.94
2018-07-24T16:02:23.242Z,37.01
2018-07-24T16:04:52.353Z,37.07
2018-07-24T16:07:21.725Z,37.13
2018-07-24T16:09:50.852Z,37.11
2018-07-24T16:12:27.345Z,37.06
2018-07-24T16:14:58.279Z,37.01
2018-07-24T16:17:28.573Z,36.99
2018-07-24T16:20:03.128Z,36.97
2018-07-24T16:22:35.537Z,36.91
2018-07-24T16:25:08.163Z,36.84
2018-07-24T16:27:38.222Z,36.76
2018-07-24T16:30:07.561Z,36.71
2018-07-24T16:32:37.275Z,36.67
2018-07-24T16:35:07.450Z,36.65
2018-07-24T16:37:40.026Z,36.63
2018-07-24T16:40:09.447Z,36.64
2018-07-24T16:42:39.897Z,36.68
2018-07-24T16:45:10.096Z,36.66
2018-07-24T16:47:40.452Z,36.62
2018-07-24T16:50:13.905Z,36.53
2018-07-24T16:52:43.374Z,36.45
2018-07-24T16:55:13.721Z,36.38
2018-07-24T16:57:42.838Z,36.32
2018-07-24T17:00:13.076Z,36.28
2018-07-24T17:02:42.689Z,36.22
2018-07-24T17:05:15.645Z,36.11
2018-07-24T17:07:48.724Z,36.02
2018-07-24T17:10:20.569Z,35.95
2018-07-24T17:12:49.811Z,35.89
2018-07-24T17:15:21.250Z,35.85
2018-07-24T17:17:50.585Z,35.82
2018-07-24T17:20:20.337Z,35.79
2018-07-24T17:22:51.125Z,35.76
2018-07-24T17:25:24.168Z,35.74
2018-07-24T17:27:53.377Z,35.71
2018-07-24T17:30:22.467Z,35.67
2018-07-24T17:32:51.705Z,35.65
2018-07-24T17:35:22.581Z,35.60
2018-07-24T17:37:52.034Z,35.52
2018-07-24T17:40:26.250Z,35.46
2018-07-24T17:42:57.149Z,35.37
2018-07-24T17:45:29.832Z,35.30
2018-07-24T17:48:01.901Z,35.23
2018-07-24T17:50:31.472Z,35.19
2018-07-24T17:53:00.525Z,35.16
2018-07-24T17:55:36.557Z,35.14
2018-07-24T17:58:06.300Z,35.09
2018-07-24T18:00:37.122Z,35.06
2018-07-24T18:03:07.878Z,35.02
2018-07-24T18:05:39.225Z,35.00
2018-07-24T18:08:14.321Z,34.97
2018-07-24T18:10:47.571Z,34.90
2018-07-24T18:13:19.842Z,34.83
2018-07-24T18:15:50.281Z,34.76
2018-07-24T18:18:24.503Z,34.68
2018-07-24T18:20:55.980Z,34.59
2018-07-24T18:23:28.471Z,34.52
2018-07-24T18:26:02.278Z,34.44
2018-07-24T18:28:32.987Z,34.36
2018-07-24T18:31:03.836Z,34.29
2018-07-24T18:33:34.607Z,34.22
2018-07-24T18:36:06.148Z,34.14
2018-07-24T18:38:47.550Z,34.10
2018-07-24T18:41:18.576Z,34.03
2018-07-24T18:43:50.510Z,33.96
2018-07-24T18:46:22.791Z,33.90
2018-07-24T18:48:55.861Z,33.85
2018-07-24T18:51:28.392Z,33.80
2018-07-24T18:53:59.450Z,33.73
2018-07-24T18:56:30.260Z,33.66
2018-07-24T18:59:06.144Z,33.60
2018-07-24T19:01:36.551Z,33.53
2018-07-24T19:04:06.598Z,33.48
2018-07-24T19:06:38.212Z,33.39
2018-07-24T19:09:12.275Z,33.28
2018-07-24T19:11:50.139Z,33.17
2018-07-24T19:14:21.620Z,33.05
2018-07-24T19:16:52.675Z,32.94
2018-07-24T19:19:23.846Z,32.85
2018-07-24T19:21:55.434Z,32.76
2018-07-24T19:24:25.757Z,32.70
2018-07-24T19:27:00.097Z,32.63
2018-07-24T19:29:29.305Z,32.57
2018-07-24T19:32:04.641Z,32.51
2018-07-24T19:34:37.178Z,32.45
2018-07-24T19:37:06.660Z,32.40
2018-07-24T19:39:36.672Z,32.32
2018-07-24T19:42:07.574Z,32.27
2018-07-24T19:44:37.222Z,32.23
2018-07-24T19:47:11.399Z,32.18
2018-07-24T19:49:41.520Z,32.12
2018-07-24T19:52:14.406Z,32.04
2018-07-24T19:54:45.546Z,31.97
2018-07-24T19:57:17.561Z,31.88
2018-07-24T19:59:51.428Z,31.81
2018-07-24T20:02:21.455Z,31.70
2018-07-24T20:04:57.335Z,31.60
2018-07-24T20:07:28.050Z,31.48
2018-07-24T20:10:03.390Z,31.36
2018-07-24T20:12:37.030Z,31.24
2018-07-24T20:15:06.641Z,31.13
2018-07-24T20:17:37.954Z,31.01
2018-07-24T20:20:09.304Z,30.89
2018-07-24T20:22:38.939Z,30.79
2018-07-24T20:25:08.269Z,30.71
2018-07-24T20:27:44.132Z,30.62
2018-07-24T20:30:17.179Z,30.54
2018-07-24T20:32:48.611Z,30.46
2018-07-24T20:35:19.300Z,30.39
2018-07-24T20:37:50.725Z,30.31
2018-07-24T20:40:20.959Z,30.26
2018-07-24T20:42:52.151Z,30.20
2018-07-24T20:45:24.206Z,30.13
2018-07-24T20:47:53.439Z,30.08
2018-07-24T20:50:25.615Z,30.04
2018-07-24T20:52:54.812Z,30.01
2018-07-24T20:55:29.013Z,29.97
2018-07-24T20:57:58.957Z,29.92
2018-07-24T21:00:31.252Z,29.90
2018-07-24T21:03:02.450Z,29.84
2018-07-24T21:05:31.769Z,29.75
2018-07-24T21:08:01.223Z,29.65
2018-07-24T21:10:31.066Z,29.55
2018-07-24T21:13:01.963Z,29.46
2018-07-24T21:15:33.686Z,29.37
2018-07-24T21:18:05.513Z,29.26
2018-07-24T21:20:34.687Z,29.16
2018-07-24T21:23:04.619Z,29.07
2018-07-24T21:25:33.939Z,29.00
2018-07-24T21:28:03.484Z,28.95
2018-07-24T21:30:33.605Z,28.93
2018-07-24T21:33:04.708Z,28.89
2018-07-24T21:35:36.335Z,28.89
2018-07-24T21:38:05.644Z,28.87
2018-07-24T21:40:34.930Z,28.85
2018-07-24T21:43:04.276Z,28.84
2018-07-24T21:45:33.940Z,28.84
2018-07-24T21:48:03.099Z,28.83
2018-07-24T21:50:33.215Z,28.82
2018-07-24T21:53:03.280Z,28.82
2018-07-24T21:55:32.794Z,28.82
2018-07-24T21:58:08.355Z,28.80
2018-07-24T22:00:40.091Z,28.80
2018-07-24T22:03:10.050Z,28.78
2018-07-24T22:05:42.808Z,28.77
2018-07-24T22:08:14.719Z,28.76
2018-07-24T22:10:44.529Z,28.75
2018-07-24T22:13:17.861Z,28.71
2018-07-24T22:15:51.538Z,28.66
2018-07-24T22:18:26.042Z,28.64
2018-07-24T22:21:03.184Z,28.63
2018-07-24T22:23:35.147Z,28.60
2018-07-24T22:26:05.291Z,28.54
2018-07-24T22:28:35.090Z,28.48
2018-07-24T22:31:06.881Z,28.44
2018-07-24T22:33:36.400Z,28.39
2018-07-24T22:36:12.246Z,28.37
2018-07-24T22:38:41.369Z,28.37
2018-07-24T22:41:10.647Z,28.36
2018-07-24T22:43:40.988Z,28.37
2018-07-24T22:46:10.682Z,28.36
2018-07-24T22:48:40.693Z,28.36
2018-07-24T22:51:12.972Z,28.38
2018-07-24T22:53:45.281Z,28.37
2018-07-24T22:56:19.853Z,28.33
2018-07-24T22:58:49.020Z,28.31
2018-07-24T23:01:20.654Z,28.27
2018-07-24T23:03:50.600Z,28.21
2018-07-24T23:06:19.724Z,28.15
2018-07-24T23:08:48.970Z,28.08
2018-07-24T23:11:18.902Z,27.99
2018-07-24T23:13:51.073Z,27.87
2018-07-24T23:16:20.423Z,27.75
2018-07-24T23:18:54.113Z,27.65
2018-07-24T23:21:23.213Z,27.51
2018-07-24T23:23:53.895Z,27.41
2018-07-24T23:26:25.593Z,27.28
2018-07-24T23:28:54.709Z,27.20
2018-07-24T23:31:23.888Z,27.13
2018-07-24T23:33:57.009Z,27.08
2018-07-24T23:36:26.295Z,27.03
2018-07-24T23:39:03.343Z,26.99
2018-07-24T23:41:32.537Z,26.94
2018-07-24T23:44:04.001Z,26.92
2018-07-24T23:46:33.109Z,26.90
2018-07-24T23:49:02.343Z,26.90
2018-07-24T23:51:33.385Z,26.88
2018-07-24T23:54:10.282Z,26.86
2018-07-24T23:56:42.500Z,26.86
2018-07-24T23:59:11.699Z,26.86
